Hilo, Hawaii
Current Conditions -  °F | °C
As of 12:53 PM on Wednesday 22 Oct 2014 (Local Time) from PHTO Reporting Station
Broken Clouds Broken Clouds  
Wind Chill: 84°   Ceiling: 2100
Heat Index: 89°   Visibility: 10mi
Dew Point: 71°   Wind: 15mph
Humidity: 65%   Direction: 90°E
Pressure: 29.99"   Gusts: NA
Location:  19.72°N, 155.08°W
Report Text: PHTO 222253Z 09013KT 10SM BKN021 29/22 A2999 RMK AO2 SLP155 T02890217
Loading
Personal Weather Stations






























Interactive Weather Map New forecast layout! Learn more

10-Day Weather Forecast

Advertisements
Track Severe Weather on mobile